createdAt,value
2023-02-27T06:03:15.929Z,340.00
2023-02-27T06:04:15.865Z,342.00
2023-02-27T06:05:16.951Z,342.00
2023-02-27T06:06:16.928Z,341.00
2023-02-27T06:07:16.966Z,341.00
2023-02-27T06:08:16.977Z,342.00
2023-02-27T06:09:16.989Z,343.00
2023-02-27T06:10:15.986Z,344.00
2023-02-27T06:11:16.039Z,346.00
2023-02-27T06:12:17.096Z,346.00
2023-02-27T06:13:17.188Z,346.00
2023-02-27T06:14:17.209Z,345.00
2023-02-27T06:15:17.240Z,343.00
2023-02-27T06:16:17.268Z,347.00
2023-02-27T06:17:16.265Z,349.00
2023-02-27T06:23:17.331Z,344.00
2023-02-27T06:24:17.332Z,343.00
2023-02-27T06:25:16.356Z,344.00
2023-02-27T06:26:16.409Z,345.00
2023-02-27T06:27:17.374Z,344.00
2023-02-27T06:28:17.377Z,342.00
2023-02-27T06:29:17.367Z,345.00
2023-02-27T06:30:17.383Z,345.00
2023-02-27T06:31:17.446Z,344.00
2023-02-27T06:32:17.430Z,344.00
2023-02-27T06:33:17.446Z,343.00
2023-02-27T06:34:17.435Z,343.00
2023-02-27T06:35:17.431Z,343.00
2023-02-27T06:36:17.439Z,345.00
2023-02-27T06:37:17.462Z,345.00
2023-02-27T06:38:17.474Z,346.00
2023-02-27T06:39:16.510Z,344.00
2023-02-27T06:40:17.527Z,344.00
2023-02-27T06:41:17.531Z,344.00
2023-02-27T06:42:17.599Z,345.00
2023-02-27T06:43:17.579Z,345.00
2023-02-27T06:44:18.548Z,346.00
2023-02-27T06:45:17.624Z,348.00
2023-02-27T06:46:17.688Z,349.00
2023-02-27T06:47:17.599Z,351.00
2023-02-27T06:48:16.578Z,350.00
2023-02-27T06:49:17.587Z,349.00
2023-02-27T06:50:17.599Z,348.00
2023-02-27T06:51:17.564Z,350.00
2023-02-27T06:52:17.567Z,352.00
2023-02-27T06:53:16.540Z,352.00
2023-02-27T06:54:17.538Z,351.00
2023-02-27T06:55:17.541Z,352.00
2023-02-27T06:57:16.541Z,350.00
2023-02-27T06:58:17.543Z,351.00
2023-02-27T06:59:16.508Z,353.00
2023-02-27T07:00:17.514Z,354.00
2023-02-27T07:01:16.556Z,354.00
2023-02-27T07:02:16.960Z,355.00
2023-02-27T07:03:16.510Z,354.00
2023-02-27T07:04:16.578Z,354.00
2023-02-27T07:05:16.465Z,354.00
2023-02-27T07:06:16.503Z,354.00
2023-02-27T07:07:33.839Z,353.00
2023-02-27T07:08:17.490Z,353.00
2023-02-27T07:09:17.452Z,351.00
2023-02-27T07:10:17.460Z,353.00
2023-02-27T07:11:17.432Z,350.00
2023-02-27T07:12:17.436Z,350.00
2023-02-27T07:13:19.532Z,350.00
2023-02-27T07:14:17.431Z,351.00
2023-02-27T07:15:17.426Z,352.00
2023-02-27T07:16:16.465Z,354.00
2023-02-27T07:17:17.393Z,356.00
2023-02-27T07:18:17.423Z,357.00
2023-02-27T07:19:17.374Z,357.00
2023-02-27T07:20:16.401Z,356.00
2023-02-27T07:21:17.365Z,353.00
2023-02-27T07:22:16.409Z,354.00
2023-02-27T07:23:17.374Z,354.00
2023-02-27T07:24:17.348Z,354.00
2023-02-27T07:25:17.396Z,354.00
2023-02-27T07:26:17.341Z,356.00
2023-02-27T07:27:16.329Z,355.00
2023-02-27T07:28:17.349Z,354.00
2023-02-27T07:29:17.332Z,353.00
2023-02-27T07:30:16.315Z,353.00
2023-02-27T07:32:17.385Z,353.00
2023-02-27T07:33:17.314Z,354.00
2023-02-27T07:34:17.298Z,352.00
2023-02-27T07:35:17.276Z,351.00
2023-02-27T07:36:17.276Z,349.00
2023-02-27T07:37:17.264Z,347.00
2023-02-27T07:41:29.647Z,354.00
2023-02-27T14:29:22.347Z,751.00
2023-02-27T14:31:22.432Z,751.00
2023-02-27T14:32:22.561Z,751.00
2023-02-27T14:34:22.465Z,751.00
2023-02-27T14:36:22.479Z,746.00
2023-02-27T14:37:22.485Z,745.00
2023-02-27T14:38:22.505Z,744.00
2023-02-27T14:39:22.559Z,742.00
2023-02-27T14:40:29.680Z,739.00
2023-02-27T14:41:22.572Z,739.00
2023-02-27T14:42:22.597Z,737.00
2023-02-27T14:43:22.554Z,732.00
2023-02-27T14:47:22.525Z,733.00
2023-02-27T14:49:22.513Z,728.00
2023-02-27T14:50:22.547Z,725.00
2023-02-27T14:51:22.521Z,725.00
2023-02-27T14:54:22.501Z,725.00
2023-02-27T14:55:22.501Z,721.00
2023-02-27T14:56:22.473Z,720.00
2023-02-27T14:57:23.716Z,720.00
2023-02-27T14:59:22.458Z,714.00
2023-02-27T15:00:22.451Z,714.00
2023-02-27T15:01:22.497Z,716.00
2023-02-27T15:02:22.477Z,716.00
2023-02-27T15:03:22.578Z,714.00
2023-02-27T15:04:22.745Z,716.00
2023-02-27T15:06:22.672Z,717.00
2023-02-27T15:07:22.698Z,715.00
2023-02-27T15:08:22.739Z,714.00
2023-02-27T15:12:22.976Z,712.00
2023-02-27T15:13:22.960Z,710.00
2023-02-27T15:14:23.016Z,710.00
2023-02-27T15:16:23.195Z,705.00
2023-02-27T15:17:23.232Z,702.00
2023-02-27T15:18:23.194Z,703.00
2023-02-27T15:19:23.254Z,703.00
2023-02-27T15:21:23.384Z,706.00
2023-02-27T15:22:37.659Z,706.00
2023-02-27T15:23:23.441Z,702.00
2023-02-27T15:24:23.402Z,701.00
2023-02-27T15:25:22.387Z,701.00
2023-02-27T15:26:23.411Z,697.00
2023-02-27T15:27:23.377Z,697.00
2023-02-27T15:28:22.405Z,697.00
2023-02-27T15:29:23.363Z,696.00
2023-02-27T15:30:23.370Z,695.00
2023-02-27T15:31:23.380Z,695.00
2023-02-27T15:32:23.365Z,695.00
2023-02-27T15:33:23.355Z,695.00
2023-02-27T15:34:23.356Z,695.00
2023-02-27T15:35:23.429Z,695.00
2023-02-27T15:36:23.317Z,695.00
2023-02-27T15:37:23.313Z,698.00
2023-02-27T15:38:22.341Z,697.00
2023-02-27T15:39:23.302Z,696.00
2023-02-27T15:41:23.290Z,700.00
2023-02-27T15:42:23.376Z,699.00
2023-02-27T15:43:23.282Z,696.00
2023-02-27T15:44:23.272Z,692.00
2023-02-27T15:47:23.384Z,686.00
2023-02-27T15:48:23.392Z,687.00
2023-02-27T15:49:23.456Z,689.00
2023-02-27T15:50:22.509Z,690.00
2023-02-27T15:51:23.566Z,690.00
2023-02-27T15:52:23.616Z,690.00
2023-02-27T15:53:23.687Z,690.00
2023-02-27T15:54:23.737Z,688.00
2023-02-27T15:55:23.771Z,688.00
2023-02-27T15:56:22.828Z,688.00
2023-02-27T15:57:23.871Z,686.00
2023-02-27T15:58:23.965Z,687.00
2023-02-27T15:59:23.991Z,688.00
2023-02-27T16:00:23.042Z,688.00
2023-02-27T16:01:23.231Z,689.00
2023-02-27T16:02:23.170Z,687.00
2023-02-27T16:03:24.187Z,685.00
2023-02-27T16:04:23.264Z,684.00
2023-02-27T16:05:23.321Z,684.00
2023-02-27T16:06:24.421Z,686.00
2023-02-27T16:07:24.423Z,681.00
2023-02-27T16:08:24.490Z,678.00
2023-02-27T16:09:24.544Z,678.00
2023-02-27T16:10:24.625Z,677.00
2023-02-27T16:11:23.664Z,675.00
2023-02-27T16:12:24.702Z,673.00
2023-02-27T16:13:23.754Z,672.00
2023-02-27T16:14:26.553Z,671.00
2023-02-27T16:15:24.814Z,672.00
2023-02-27T16:16:24.853Z,671.00
2023-02-27T16:17:23.822Z,674.00
2023-02-27T16:18:24.786Z,674.00
2023-02-27T16:19:24.791Z,675.00
2023-02-27T16:20:23.783Z,677.00
2023-02-27T16:21:24.767Z,677.00
2023-02-27T16:22:24.771Z,674.00
2023-02-27T16:23:24.763Z,673.00
2023-02-27T16:24:24.728Z,669.00
2023-02-27T16:25:23.735Z,671.00
2023-02-27T16:26:24.765Z,667.00
2023-02-27T16:27:24.722Z,664.00
2023-02-27T16:28:24.710Z,663.00
2023-02-27T16:29:24.759Z,664.00
